sensor_id;sensor_type;location;lat;lon;timestamp;temperature;humidity
53695;DHT22;39588;51.124;7.190;2023-06-01T00:02:14;15.80;95.70
53695;DHT22;39588;51.124;7.190;2023-06-01T00:04:40;15.70;95.70
53695;DHT22;39588;51.124;7.190;2023-06-01T00:07:09;15.70;95.80
53695;DHT22;39588;51.124;7.190;2023-06-01T00:09:36;15.60;95.90
53695;DHT22;39588;51.124;7.190;2023-06-01T00:12:02;15.60;96.00
53695;DHT22;39588;51.124;7.190;2023-06-01T00:14:28;15.50;96.10
53695;DHT22;39588;51.124;7.190;2023-06-01T00:16:53;15.50;96.10
53695;DHT22;39588;51.124;7.190;2023-06-01T00:26:39;15.30;96.40
53695;DHT22;39588;51.124;7.190;2023-06-01T00:29:05;15.20;96.50
53695;DHT22;39588;51.124;7.190;2023-06-01T00:31:30;15.20;96.50
53695;DHT22;39588;51.124;7.190;2023-06-01T00:33:56;15.20;96.50
53695;DHT22;39588;51.124;7.190;2023-06-01T00:36:21;15.20;96.60
53695;DHT22;39588;51.124;7.190;2023-06-01T00:38:47;15.20;96.60
53695;DHT22;39588;51.124;7.190;2023-06-01T00:41:13;15.20;96.60
53695;DHT22;39588;51.124;7.190;2023-06-01T00:43:38;15.20;96.50
53695;DHT22;39588;51.124;7.190;2023-06-01T00:46:05;15.20;96.60
53695;DHT22;39588;51.124;7.190;2023-06-01T00:48:31;15.10;96.60
53695;DHT22;39588;51.124;7.190;2023-06-01T00:50:57;15.10;96.70
53695;DHT22;39588;51.124;7.190;2023-06-01T00:53:25;15.00;96.70
53695;DHT22;39588;51.124;7.190;2023-06-01T00:55:51;15.00;96.80
53695;DHT22;39588;51.124;7.190;2023-06-01T00:58:17;15.00;96.80
53695;DHT22;39588;51.124;7.190;2023-06-01T01:05:38;14.80;96.90
53695;DHT22;39588;51.124;7.190;2023-06-01T01:13:48;14.70;97.00
53695;DHT22;39588;51.124;7.190;2023-06-01T01:16:42;14.70;97.00
53695;DHT22;39588;51.124;7.190;2023-06-01T01:25:31;14.50;97.10
53695;DHT22;39588;51.124;7.190;2023-06-01T01:28:18;14.50;97.10
53695;DHT22;39588;51.124;7.190;2023-06-01T01:30:45;14.40;97.10
53695;DHT22;39588;51.124;7.190;2023-06-01T01:35:38;14.40;97.10
53695;DHT22;39588;51.124;7.190;2023-06-01T01:38:04;14.30;97.00
53695;DHT22;39588;51.124;7.190;2023-06-01T01:45:23;14.20;97.10
53695;DHT22;39588;51.124;7.190;2023-06-01T01:47:51;14.20;97.20
53695;DHT22;39588;51.124;7.190;2023-06-01T01:50:21;14.10;97.20
53695;DHT22;39588;51.124;7.190;2023-06-01T01:52:49;14.10;97.30
53695;DHT22;39588;51.124;7.190;2023-06-01T02:00:10;14.20;97.40
53695;DHT22;39588;51.124;7.190;2023-06-01T02:02:38;14.10;97.50
53695;DHT22;39588;51.124;7.190;2023-06-01T02:05:04;14.00;97.50
53695;DHT22;39588;51.124;7.190;2023-06-01T02:17:16;13.90;97.60
53695;DHT22;39588;51.124;7.190;2023-06-01T02:19:43;14.00;97.60
53695;DHT22;39588;51.124;7.190;2023-06-01T02:22:09;13.90;97.60
53695;DHT22;39588;51.124;7.190;2023-06-01T02:29:27;14.00;97.50
53695;DHT22;39588;51.124;7.190;2023-06-01T02:34:20;13.90;97.40
53695;DHT22;39588;51.124;7.190;2023-06-01T02:41:41;13.90;97.40
53695;DHT22;39588;51.124;7.190;2023-06-01T02:44:07;13.90;97.50
53695;DHT22;39588;51.124;7.190;2023-06-01T02:46:32;13.80;97.60
53695;DHT22;39588;51.124;7.190;2023-06-01T02:48:58;13.70;97.80
53695;DHT22;39588;51.124;7.190;2023-06-01T02:51:23;13.70;97.90
53695;DHT22;39588;51.124;7.190;2023-06-01T02:53:49;13.60;98.10
53695;DHT22;39588;51.124;7.190;2023-06-01T02:56:15;13.50;98.20
53695;DHT22;39588;51.124;7.190;2023-06-01T03:01:07;13.40;98.30
53695;DHT22;39588;51.124;7.190;2023-06-01T03:03:37;13.40;98.40
53695;DHT22;39588;51.124;7.190;2023-06-01T03:06:04;13.30;98.40
53695;DHT22;39588;51.124;7.190;2023-06-01T03:08:31;13.30;98.40
53695;DHT22;39588;51.124;7.190;2023-06-01T03:10:57;13.30;98.40
53695;DHT22;39588;51.124;7.190;2023-06-01T03:15:49;13.10;98.50
53695;DHT22;39588;51.124;7.190;2023-06-01T03:18:16;13.10;98.50
53695;DHT22;39588;51.124;7.190;2023-06-01T03:20:42;13.10;98.60
53695;DHT22;39588;51.124;7.190;2023-06-01T03:23:07;13.00;98.60
53695;DHT22;39588;51.124;7.190;2023-06-01T03:28:00;13.00;98.70
53695;DHT22;39588;51.124;7.190;2023-06-01T03:32:51;12.90;98.90
53695;DHT22;39588;51.124;7.190;2023-06-01T03:37:45;12.80;99.10
53695;DHT22;39588;51.124;7.190;2023-06-01T03:40:11;12.80;99.20
53695;DHT22;39588;51.124;7.190;2023-06-01T03:42:47;12.70;99.40
53695;DHT22;39588;51.124;7.190;2023-06-01T03:45:14;12.70;99.50
53695;DHT22;39588;51.124;7.190;2023-06-01T03:50:09;12.70;99.60
53695;DHT22;39588;51.124;7.190;2023-06-01T03:52:36;12.60;99.70
53695;DHT22;39588;51.124;7.190;2023-06-01T03:55:03;12.60;99.70
53695;DHT22;39588;51.124;7.190;2023-06-01T03:57:34;12.50;99.90
53695;DHT22;39588;51.124;7.190;2023-06-01T04:00:01;12.60;99.90
53695;DHT22;39588;51.124;7.190;2023-06-01T04:07:21;12.60;99.90
53695;DHT22;39588;51.124;7.190;2023-06-01T04:09:48;12.50;99.90
53695;DHT22;39588;51.124;7.190;2023-06-01T04:12:14;12.40;99.90
53695;DHT22;39588;51.124;7.190;2023-06-01T04:17:06;12.40;99.90
53695;DHT22;39588;51.124;7.190;2023-06-01T04:19:33;12.30;99.90
53695;DHT22;39588;51.124;7.190;2023-06-01T04:22:00;12.30;99.90
53695;DHT22;39588;51.124;7.190;2023-06-01T04:24:26;12.40;99.90
53695;DHT22;39588;51.124;7.190;2023-06-01T04:29:17;12.20;99.90
53695;DHT22;39588;51.124;7.190;2023-06-01T04:31:45;12.20;99.90
53695;DHT22;39588;51.124;7.190;2023-06-01T04:39:05;12.30;99.90
53695;DHT22;39588;51.124;7.190;2023-06-01T04:41:33;12.30;99.90
53695;DHT22;39588;51.124;7.190;2023-06-01T04:44:00;12.30;99.90
53695;DHT22;39588;51.124;7.190;2023-06-01T04:51:25;12.50;99.90
53695;DHT22;39588;51.124;7.190;2023-06-01T04:53:53;12.60;99.90
53695;DHT22;39588;51.124;7.190;2023-06-01T04:56:23;12.50;99.90
53695;DHT22;39588;51.124;7.190;2023-06-01T04:58:56;12.60;99.90
53695;DHT22;39588;51.124;7.190;2023-06-01T05:01:23;12.70;99.90
53695;DHT22;39588;51.124;7.190;2023-06-01T05:03:51;12.80;99.90
53695;DHT22;39588;51.124;7.190;2023-06-01T05:06:18;12.90;99.90
53695;DHT22;39588;51.124;7.190;2023-06-01T05:13:38;12.90;99.90
53695;DHT22;39588;51.124;7.190;2023-06-01T05:16:04;13.00;99.90
53695;DHT22;39588;51.124;7.190;2023-06-01T05:18:30;13.10;99.90
53695;DHT22;39588;51.124;7.190;2023-06-01T05:20:56;13.20;99.90
53695;DHT22;39588;51.124;7.190;2023-06-01T05:25:48;13.40;99.90
53695;DHT22;39588;51.124;7.190;2023-06-01T05:28:13;13.60;99.90
53695;DHT22;39588;51.124;7.190;2023-06-01T05:30:40;13.60;99.80
53695;DHT22;39588;51.124;7.190;2023-06-01T05:33:05;13.70;99.50
53695;DHT22;39588;51.124;7.190;2023-06-01T05:59:51;14.50;98.60
53695;DHT22;39588;51.124;7.190;2023-06-01T06:02:19;14.40;98.60
53695;DHT22;39588;51.124;7.190;2023-06-01T06:04:45;14.50;98.60
53695;DHT22;39588;51.124;7.190;2023-06-01T06:07:10;14.60;98.40
53695;DHT22;39588;51.124;7.190;2023-06-01T06:19:21;15.10;98.00
53695;DHT22;39588;51.124;7.190;2023-06-01T06:53:26;15.70;97.10
53695;DHT22;39588;51.124;7.190;2023-06-01T07:00:43;15.80;96.50
53695;DHT22;39588;51.124;7.190;2023-06-01T07:03:09;15.50;96.70
53695;DHT22;39588;51.124;7.190;2023-06-01T07:05:35;15.20;96.80
53695;DHT22;39588;51.124;7.190;2023-06-01T07:08:01;14.90;97.10
53695;DHT22;39588;51.124;7.190;2023-06-01T07:10:26;14.80;97.40
53695;DHT22;39588;51.124;7.190;2023-06-01T07:20:11;15.40;97.00
53695;DHT22;39588;51.124;7.190;2023-06-01T07:22:37;15.50;96.80
53695;DHT22;39588;51.124;7.190;2023-06-01T07:25:05;15.50;97.00
53695;DHT22;39588;51.124;7.190;2023-06-01T07:30:01;16.30;96.70
53695;DHT22;39588;51.124;7.190;2023-06-01T07:42:16;15.60;96.50
53695;DHT22;39588;51.124;7.190;2023-06-01T07:44:41;15.80;96.60
53695;DHT22;39588;51.124;7.190;2023-06-01T07:59:20;16.40;95.90
53695;DHT22;39588;51.124;7.190;2023-06-01T08:01:49;16.70;95.70
53695;DHT22;39588;51.124;7.190;2023-06-01T08:04:15;16.90;95.40
53695;DHT22;39588;51.124;7.190;2023-06-01T08:06:42;17.00;95.60
53695;DHT22;39588;51.124;7.190;2023-06-01T08:09:09;16.80;95.10
53695;DHT22;39588;51.124;7.190;2023-06-01T08:11:35;16.60;95.00
53695;DHT22;39588;51.124;7.190;2023-06-01T08:14:01;16.80;95.30
53695;DHT22;39588;51.124;7.190;2023-06-01T08:16:29;16.90;95.10
53695;DHT22;39588;51.124;7.190;2023-06-01T08:18:55;16.60;94.90
53695;DHT22;39588;51.124;7.190;2023-06-01T08:21:23;16.50;95.20
53695;DHT22;39588;51.124;7.190;2023-06-01T08:23:51;16.40;95.20
53695;DHT22;39588;51.124;7.190;2023-06-01T08:26:21;16.10;95.10
53695;DHT22;39588;51.124;7.190;2023-06-01T08:28:47;16.20;96.00
53695;DHT22;39588;51.124;7.190;2023-06-01T08:31:20;16.30;95.30
53695;DHT22;39588;51.124;7.190;2023-06-01T08:36:12;15.80;95.30
53695;DHT22;39588;51.124;7.190;2023-06-01T08:38:38;15.70;95.60
53695;DHT22;39588;51.124;7.190;2023-06-01T08:41:14;15.80;95.40
53695;DHT22;39588;51.124;7.190;2023-06-01T08:43:45;16.00;95.80
53695;DHT22;39588;51.124;7.190;2023-06-01T08:46:13;16.00;95.00
53695;DHT22;39588;51.124;7.190;2023-06-01T08:48:42;15.90;94.90
53695;DHT22;39588;51.124;7.190;2023-06-01T08:51:08;15.90;95.10
53695;DHT22;39588;51.124;7.190;2023-06-01T08:53:35;16.00;95.20
53695;DHT22;39588;51.124;7.190;2023-06-01T08:56:01;16.40;94.70
53695;DHT22;39588;51.124;7.190;2023-06-01T08:58:29;16.60;94.10
53695;DHT22;39588;51.124;7.190;2023-06-01T09:00:56;16.90;94.10
53695;DHT22;39588;51.124;7.190;2023-06-01T09:03:23;16.90;93.20
53695;DHT22;39588;51.124;7.190;2023-06-01T09:05:49;16.90;93.10
53695;DHT22;39588;51.124;7.190;2023-06-01T09:08:15;17.00;93.30
53695;DHT22;39588;51.124;7.190;2023-06-01T09:10:41;17.20;93.80
53695;DHT22;39588;51.124;7.190;2023-06-01T09:13:07;17.30;93.10
53695;DHT22;39588;51.124;7.190;2023-06-01T09:15:33;17.30;93.50
53695;DHT22;39588;51.124;7.190;2023-06-01T09:18:07;17.40;93.40
53695;DHT22;39588;51.124;7.190;2023-06-01T09:20:33;17.60;92.80
53695;DHT22;39588;51.124;7.190;2023-06-01T09:22:58;17.60;93.00
53695;DHT22;39588;51.124;7.190;2023-06-01T09:25:26;17.60;92.80
53695;DHT22;39588;51.124;7.190;2023-06-01T09:27:53;17.80;93.10
53695;DHT22;39588;51.124;7.190;2023-06-01T09:30:20;18.10;92.80
53695;DHT22;39588;51.124;7.190;2023-06-01T09:32:47;18.10;92.00
53695;DHT22;39588;51.124;7.190;2023-06-01T09:35:45;18.00;92.30
53695;DHT22;39588;51.124;7.190;2023-06-01T09:38:12;17.90;92.70
53695;DHT22;39588;51.124;7.190;2023-06-01T09:40:59;18.20;92.40
53695;DHT22;39588;51.124;7.190;2023-06-01T09:48:32;18.30;91.90
53695;DHT22;39588;51.124;7.190;2023-06-01T09:50:58;18.40;92.20
53695;DHT22;39588;51.124;7.190;2023-06-01T09:53:24;18.40;91.40
53695;DHT22;39588;51.124;7.190;2023-06-01T09:55:58;18.30;91.30
53695;DHT22;39588;51.124;7.190;2023-06-01T10:00:51;18.20;90.60
53695;DHT22;39588;51.124;7.190;2023-06-01T10:03:18;18.10;90.20
53695;DHT22;39588;51.124;7.190;2023-06-01T10:05:45;18.30;91.10
53695;DHT22;39588;51.124;7.190;2023-06-01T10:08:12;18.40;89.70
53695;DHT22;39588;51.124;7.190;2023-06-01T10:10:40;18.50;88.90
53695;DHT22;39588;51.124;7.190;2023-06-01T10:15:33;18.60;89.50
53695;DHT22;39588;51.124;7.190;2023-06-01T10:18:05;18.70;89.90
53695;DHT22;39588;51.124;7.190;2023-06-01T10:20:36;18.80;88.70
53695;DHT22;39588;51.124;7.190;2023-06-01T10:23:03;18.90;89.00
53695;DHT22;39588;51.124;7.190;2023-06-01T10:25:37;18.90;88.40
53695;DHT22;39588;51.124;7.190;2023-06-01T10:28:07;19.10;87.90
53695;DHT22;39588;51.124;7.190;2023-06-01T10:30:35;19.20;87.20
53695;DHT22;39588;51.124;7.190;2023-06-01T10:33:01;19.20;85.80
53695;DHT22;39588;51.124;7.190;2023-06-01T10:40:45;19.50;86.80
53695;DHT22;39588;51.124;7.190;2023-06-01T10:48:53;19.60;84.10
53695;DHT22;39588;51.124;7.190;2023-06-01T10:51:20;19.50;85.80
53695;DHT22;39588;51.124;7.190;2023-06-01T11:01:18;20.00;85.80
53695;DHT22;39588;51.124;7.190;2023-06-01T11:03:48;20.10;85.10
53695;DHT22;39588;51.124;7.190;2023-06-01T11:06:30;20.20;84.20
53695;DHT22;39588;51.124;7.190;2023-06-01T11:09:04;20.10;82.10
53695;DHT22;39588;51.124;7.190;2023-06-01T11:12:07;19.90;82.30
53695;DHT22;39588;51.124;7.190;2023-06-01T11:14:32;19.90;83.70
53695;DHT22;39588;51.124;7.190;2023-06-01T11:17:27;20.10;83.30
53695;DHT22;39588;51.124;7.190;2023-06-01T11:19:58;20.00;82.50
53695;DHT22;39588;51.124;7.190;2023-06-01T11:22:24;20.00;81.70
53695;DHT22;39588;51.124;7.190;2023-06-01T11:24:51;20.00;81.90
53695;DHT22;39588;51.124;7.190;2023-06-01T11:27:19;20.00;80.80
53695;DHT22;39588;51.124;7.190;2023-06-01T11:29:48;20.00;80.90
53695;DHT22;39588;51.124;7.190;2023-06-01T11:32:15;20.00;80.00
53695;DHT22;39588;51.124;7.190;2023-06-01T11:37:15;20.10;79.60
53695;DHT22;39588;51.124;7.190;2023-06-01T11:54:44;20.20;79.80
53695;DHT22;39588;51.124;7.190;2023-06-01T11:57:10;20.20;78.60
53695;DHT22;39588;51.124;7.190;2023-06-01T11:59:47;20.20;78.10
53695;DHT22;39588;51.124;7.190;2023-06-01T12:02:27;20.20;77.90
53695;DHT22;39588;51.124;7.190;2023-06-01T12:05:01;20.20;77.30
53695;DHT22;39588;51.124;7.190;2023-06-01T12:07:54;20.20;76.10
53695;DHT22;39588;51.124;7.190;2023-06-01T12:10:21;20.10;76.90
53695;DHT22;39588;51.124;7.190;2023-06-01T12:12:47;20.10;77.90
53695;DHT22;39588;51.124;7.190;2023-06-01T12:15:17;20.20;77.60
53695;DHT22;39588;51.124;7.190;2023-06-01T12:17:53;20.20;77.00
53695;DHT22;39588;51.124;7.190;2023-06-01T12:20:34;20.20;77.50
53695;DHT22;39588;51.124;7.190;2023-06-01T12:23:13;20.00;77.10
53695;DHT22;39588;51.124;7.190;2023-06-01T12:30:43;20.00;78.70
53695;DHT22;39588;51.124;7.190;2023-06-01T12:33:08;20.00;78.50
53695;DHT22;39588;51.124;7.190;2023-06-01T12:35:50;20.10;79.20
53695;DHT22;39588;51.124;7.190;2023-06-01T12:38:16;20.10;79.60
53695;DHT22;39588;51.124;7.190;2023-06-01T12:40:41;20.20;78.40
53695;DHT22;39588;51.124;7.190;2023-06-01T12:43:17;20.20;77.50
53695;DHT22;39588;51.124;7.190;2023-06-01T12:48:29;20.20;79.40
53695;DHT22;39588;51.124;7.190;2023-06-01T12:50:55;20.10;77.10
53695;DHT22;39588;51.124;7.190;2023-06-01T12:53:21;20.10;77.50
53695;DHT22;39588;51.124;7.190;2023-06-01T13:05:32;20.40;73.60
53695;DHT22;39588;51.124;7.190;2023-06-01T13:07:58;20.40;74.80
53695;DHT22;39588;51.124;7.190;2023-06-01T13:17:43;20.40;77.30
53695;DHT22;39588;51.124;7.190;2023-06-01T13:22:37;20.60;77.00
53695;DHT22;39588;51.124;7.190;2023-06-01T13:27:30;20.60;77.10
53695;DHT22;39588;51.124;7.190;2023-06-01T13:32:22;20.60;76.00
53695;DHT22;39588;51.124;7.190;2023-06-01T13:54:16;20.50;78.10
53695;DHT22;39588;51.124;7.190;2023-06-01T13:56:43;20.60;79.50
53695;DHT22;39588;51.124;7.190;2023-06-01T13:59:09;20.70;78.80
53695;DHT22;39588;51.124;7.190;2023-06-01T14:01:35;20.70;79.20
53695;DHT22;39588;51.124;7.190;2023-06-01T14:04:00;20.70;80.20
53695;DHT22;39588;51.124;7.190;2023-06-01T14:06:26;20.60;80.80
53695;DHT22;39588;51.124;7.190;2023-06-01T14:13:44;20.70;81.00
53695;DHT22;39588;51.124;7.190;2023-06-01T14:18:35;20.80;80.90
53695;DHT22;39588;51.124;7.190;2023-06-01T14:23:28;20.80;81.20
53695;DHT22;39588;51.124;7.190;2023-06-01T14:25:54;20.60;78.50
53695;DHT22;39588;51.124;7.190;2023-06-01T14:30:46;20.50;80.70
53695;DHT22;39588;51.124;7.190;2023-06-01T14:33:12;20.60;82.00
53695;DHT22;39588;51.124;7.190;2023-06-01T14:45:21;20.60;76.90
53695;DHT22;39588;51.124;7.190;2023-06-01T14:47:48;20.70;76.00
53695;DHT22;39588;51.124;7.190;2023-06-01T14:52:40;20.60;79.00
53695;DHT22;39588;51.124;7.190;2023-06-01T14:55:06;20.60;79.50
53695;DHT22;39588;51.124;7.190;2023-06-01T14:57:31;20.50;79.90
53695;DHT22;39588;51.124;7.190;2023-06-01T14:59:57;20.30;79.70
53695;DHT22;39588;51.124;7.190;2023-06-01T15:02:23;20.30;79.30
53695;DHT22;39588;51.124;7.190;2023-06-01T15:04:49;20.30;79.70
53695;DHT22;39588;51.124;7.190;2023-06-01T15:09:41;20.50;80.90
53695;DHT22;39588;51.124;7.190;2023-06-01T15:12:07;20.70;80.40
53695;DHT22;39588;51.124;7.190;2023-06-01T15:16:58;20.80;79.20
53695;DHT22;39588;51.124;7.190;2023-06-01T15:19:24;20.80;76.20
53695;DHT22;39588;51.124;7.190;2023-06-01T15:21:50;20.90;76.90
53695;DHT22;39588;51.124;7.190;2023-06-01T15:24:15;20.90;76.30
53695;DHT22;39588;51.124;7.190;2023-06-01T15:26:41;21.10;77.80
53695;DHT22;39588;51.124;7.190;2023-06-01T15:33:59;21.50;78.10
53695;DHT22;39588;51.124;7.190;2023-06-01T15:36:25;21.40;77.80
53695;DHT22;39588;51.124;7.190;2023-06-01T15:38:50;21.20;77.50
53695;DHT22;39588;51.124;7.190;2023-06-01T15:41:16;20.90;77.20
53695;DHT22;39588;51.124;7.190;2023-06-01T15:55:52;19.80;79.40
53695;DHT22;39588;51.124;7.190;2023-06-01T15:58:17;19.70;80.10
53695;DHT22;39588;51.124;7.190;2023-06-01T16:00:43;19.70;79.70
53695;DHT22;39588;51.124;7.190;2023-06-01T16:03:09;19.60;79.70
53695;DHT22;39588;51.124;7.190;2023-06-01T16:12:55;19.40;80.10
53695;DHT22;39588;51.124;7.190;2023-06-01T16:29:58;18.80;82.00
53695;DHT22;39588;51.124;7.190;2023-06-01T16:34:51;18.80;83.70
53695;DHT22;39588;51.124;7.190;2023-06-01T16:42:09;18.50;84.10
53695;DHT22;39588;51.124;7.190;2023-06-01T16:44:35;18.50;84.60
53695;DHT22;39588;51.124;7.190;2023-06-01T16:47:00;18.60;84.80
53695;DHT22;39588;51.124;7.190;2023-06-01T16:49:26;18.60;85.20
53695;DHT22;39588;51.124;7.190;2023-06-01T16:59:11;18.80;84.80
53695;DHT22;39588;51.124;7.190;2023-06-01T17:01:37;18.80;84.20
53695;DHT22;39588;51.124;7.190;2023-06-01T17:04:03;18.90;84.70
53695;DHT22;39588;51.124;7.190;2023-06-01T17:06:29;18.90;83.80
53695;DHT22;39588;51.124;7.190;2023-06-01T17:08:56;18.80;84.70
53695;DHT22;39588;51.124;7.190;2023-06-01T17:11:23;18.90;84.70
53695;DHT22;39588;51.124;7.190;2023-06-01T17:13:49;19.00;84.80
53695;DHT22;39588;51.124;7.190;2023-06-01T17:18:40;18.80;83.90
53695;DHT22;39588;51.124;7.190;2023-06-01T17:23:32;18.70;84.00
53695;DHT22;39588;51.124;7.190;2023-06-01T17:25:57;18.70;84.10
53695;DHT22;39588;51.124;7.190;2023-06-01T17:33:15;18.60;84.20
53695;DHT22;39588;51.124;7.190;2023-06-01T17:40:33;18.30;84.90
53695;DHT22;39588;51.124;7.190;2023-06-01T17:42:58;18.20;85.00
53695;DHT22;39588;51.124;7.190;2023-06-01T17:45:24;18.20;85.00
53695;DHT22;39588;51.124;7.190;2023-06-01T18:00:00;17.90;86.70
53695;DHT22;39588;51.124;7.190;2023-06-01T18:02:26;17.90;86.70
53695;DHT22;39588;51.124;7.190;2023-06-01T18:09:44;17.90;87.40
53695;DHT22;39588;51.124;7.190;2023-06-01T18:12:11;17.90;87.30
53695;DHT22;39588;51.124;7.190;2023-06-01T18:14:36;17.90;88.20
53695;DHT22;39588;51.124;7.190;2023-06-01T18:21:54;17.90;88.30
53695;DHT22;39588;51.124;7.190;2023-06-01T18:24:20;17.80;88.50
53695;DHT22;39588;51.124;7.190;2023-06-01T18:26:45;17.80;88.40
53695;DHT22;39588;51.124;7.190;2023-06-01T18:29:11;17.70;88.80
53695;DHT22;39588;51.124;7.190;2023-06-01T18:38:56;17.40;89.50
53695;DHT22;39588;51.124;7.190;2023-06-01T18:43:48;17.30;90.20
53695;DHT22;39588;51.124;7.190;2023-06-01T18:46:14;17.30;90.10
53695;DHT22;39588;51.124;7.190;2023-06-01T18:48:40;17.30;90.20
53695;DHT22;39588;51.124;7.190;2023-06-01T18:53:32;17.20;90.60
53695;DHT22;39588;51.124;7.190;2023-06-01T19:03:17;16.70;91.80
53695;DHT22;39588;51.124;7.190;2023-06-01T19:05:43;16.60;92.30
53695;DHT22;39588;51.124;7.190;2023-06-01T19:11:04;16.40;93.10
53695;DHT22;39588;51.124;7.190;2023-06-01T19:13:37;16.30;93.80
53695;DHT22;39588;51.124;7.190;2023-06-01T19:16:16;16.10;94.40
53695;DHT22;39588;51.124;7.190;2023-06-01T19:18:47;16.00;95.00
53695;DHT22;39588;51.124;7.190;2023-06-01T19:26:32;15.70;95.80
53695;DHT22;39588;51.124;7.190;2023-06-01T19:29:03;15.70;96.10
53695;DHT22;39588;51.124;7.190;2023-06-01T19:31:35;15.50;96.20
53695;DHT22;39588;51.124;7.190;2023-06-01T19:34:02;15.50;96.50
53695;DHT22;39588;51.124;7.190;2023-06-01T19:36:53;15.40;96.60
53695;DHT22;39588;51.124;7.190;2023-06-01T19:39:41;15.30;96.70
53695;DHT22;39588;51.124;7.190;2023-06-01T19:45:21;15.20;97.00
53695;DHT22;39588;51.124;7.190;2023-06-01T19:47:51;15.10;97.10
53695;DHT22;39588;51.124;7.190;2023-06-01T19:53:02;14.80;97.30
53695;DHT22;39588;51.124;7.190;2023-06-01T19:55:32;14.70;97.40
53695;DHT22;39588;51.124;7.190;2023-06-01T19:57:58;14.70;97.40
53695;DHT22;39588;51.124;7.190;2023-06-01T20:00:28;14.60;97.30
53695;DHT22;39588;51.124;7.190;2023-06-01T20:02:55;14.50;97.30
53695;DHT22;39588;51.124;7.190;2023-06-01T20:05:22;14.50;97.30
53695;DHT22;39588;51.124;7.190;2023-06-01T20:07:56;14.40;97.30
53695;DHT22;39588;51.124;7.190;2023-06-01T20:10:24;14.40;97.20
53695;DHT22;39588;51.124;7.190;2023-06-01T20:12:54;14.20;97.30
53695;DHT22;39588;51.124;7.190;2023-06-01T20:15:28;14.10;97.30
53695;DHT22;39588;51.124;7.190;2023-06-01T20:17:55;14.10;97.50
53695;DHT22;39588;51.124;7.190;2023-06-01T20:20:22;14.10;97.50
53695;DHT22;39588;51.124;7.190;2023-06-01T20:22:48;14.10;97.40
53695;DHT22;39588;51.124;7.190;2023-06-01T20:25:21;14.00;97.40
53695;DHT22;39588;51.124;7.190;2023-06-01T20:27:47;14.00;97.40
53695;DHT22;39588;51.124;7.190;2023-06-01T20:32:59;13.90;97.40
53695;DHT22;39588;51.124;7.190;2023-06-01T20:35:25;13.90;97.30
53695;DHT22;39588;51.124;7.190;2023-06-01T20:41:22;13.70;96.90
53695;DHT22;39588;51.124;7.190;2023-06-01T20:43:23;13.70;96.80
53695;DHT22;39588;51.124;7.190;2023-06-01T20:45:58;13.60;96.80
53695;DHT22;39588;51.124;7.190;2023-06-01T20:48:54;13.60;96.90
53695;DHT22;39588;51.124;7.190;2023-06-01T20:56:39;13.40;96.80
53695;DHT22;39588;51.124;7.190;2023-06-01T20:59:25;13.40;96.80
53695;DHT22;39588;51.124;7.190;2023-06-01T21:02:02;13.40;96.80
53695;DHT22;39588;51.124;7.190;2023-06-01T21:04:33;13.40;96.80
53695;DHT22;39588;51.124;7.190;2023-06-01T21:06:59;13.30;96.80
53695;DHT22;39588;51.124;7.190;2023-06-01T21:09:25;13.30;96.90
53695;DHT22;39588;51.124;7.190;2023-06-01T21:11:53;13.20;96.90
53695;DHT22;39588;51.124;7.190;2023-06-01T21:14:19;13.20;97.00
53695;DHT22;39588;51.124;7.190;2023-06-01T21:16:46;13.20;97.00
53695;DHT22;39588;51.124;7.190;2023-06-01T21:19:12;13.20;97.00
53695;DHT22;39588;51.124;7.190;2023-06-01T21:26:31;13.10;97.00
53695;DHT22;39588;51.124;7.190;2023-06-01T21:36:17;13.00;97.20
53695;DHT22;39588;51.124;7.190;2023-06-01T21:38:43;13.00;97.30
53695;DHT22;39588;51.124;7.190;2023-06-01T21:48:27;12.80;97.30
53695;DHT22;39588;51.124;7.190;2023-06-01T21:50:54;12.70;97.40
53695;DHT22;39588;51.124;7.190;2023-06-01T21:53:21;12.70;97.50
53695;DHT22;39588;51.124;7.190;2023-06-01T21:55:48;12.70;97.60
53695;DHT22;39588;51.124;7.190;2023-06-01T21:58:16;12.60;97.60
53695;DHT22;39588;51.124;7.190;2023-06-01T22:00:44;12.60;97.60
53695;DHT22;39588;51.124;7.190;2023-06-01T22:03:11;12.50;97.60
53695;DHT22;39588;51.124;7.190;2023-06-01T22:05:36;12.40;97.70
53695;DHT22;39588;51.124;7.190;2023-06-01T22:08:03;12.40;97.80
53695;DHT22;39588;51.124;7.190;2023-06-01T22:10:30;12.40;97.90
53695;DHT22;39588;51.124;7.190;2023-06-01T22:12:56;12.40;97.90
53695;DHT22;39588;51.124;7.190;2023-06-01T22:15:23;12.40;97.80
53695;DHT22;39588;51.124;7.190;2023-06-01T22:17:49;12.40;97.80
53695;DHT22;39588;51.124;7.190;2023-06-01T22:22:42;12.50;97.50
53695;DHT22;39588;51.124;7.190;2023-06-01T22:30:01;12.30;97.40
53695;DHT22;39588;51.124;7.190;2023-06-01T22:32:26;12.30;97.30
53695;DHT22;39588;51.124;7.190;2023-06-01T22:34:53;12.20;97.20
53695;DHT22;39588;51.124;7.190;2023-06-01T22:37:19;12.30;97.20
53695;DHT22;39588;51.124;7.190;2023-06-01T22:39:47;12.10;97.00
53695;DHT22;39588;51.124;7.190;2023-06-01T22:42:13;12.10;96.90
53695;DHT22;39588;51.124;7.190;2023-06-01T22:44:39;12.00;96.90
53695;DHT22;39588;51.124;7.190;2023-06-01T22:47:05;12.50;97.10
53695;DHT22;39588;51.124;7.190;2023-06-01T22:52:00;11.90;96.90
53695;DHT22;39588;51.124;7.190;2023-06-01T23:04:12;11.80;97.00
53695;DHT22;39588;51.124;7.190;2023-06-01T23:06:37;11.80;96.90
53695;DHT22;39588;51.124;7.190;2023-06-01T23:09:04;11.80;96.90
53695;DHT22;39588;51.124;7.190;2023-06-01T23:14:00;11.80;96.80
53695;DHT22;39588;51.124;7.190;2023-06-01T23:18:58;11.70;96.80
53695;DHT22;39588;51.124;7.190;2023-06-01T23:21:26;11.80;96.80
53695;DHT22;39588;51.124;7.190;2023-06-01T23:23:52;11.80;96.90
53695;DHT22;39588;51.124;7.190;2023-06-01T23:26:19;11.80;96.90
53695;DHT22;39588;51.124;7.190;2023-06-01T23:31:21;11.90;96.70
53695;DHT22;39588;51.124;7.190;2023-06-01T23:41:12;12.00;96.60
53695;DHT22;39588;51.124;7.190;2023-06-01T23:43:45;11.90;96.70
